To NAV CANADA Home Page Login to a new session Search on AWWS site Disclaimer Vers la page française équivalente Tips FAQ What's new on the site To the Forecasts and Observations / NOTAM section To "File a Flight Plan" website Publications and other links Update of the User's profile FIC Telephone Numbers My Weather Data Folder Route Weather Data Regional Weather Data Local Weather Data To the Forecasts and Observations / NOTAM section
Request Generated 05/17/2021 at 21:20:33 UTC . Weather information available at that time is displayed.

METAR/TAF

TOFINO/LONG BEACH/BC    

METAR CYAZ 172100Z 16010G16KT 2 1/2SM -SHRA BR SCT003 BKN009 OVC013 10/10 A2990 RMK SF4CU3CU1 SLP126=
SPECI CYAZ 172044Z CCA 15011KT 1SM -SHRA BR SCT003 OVC014 10/10 A2990 RMK SF4CU8 SLP125=
SPECI CYAZ 172044Z 15011KT 1SM -SHRA BR OVC014 10/10 A2990 RMK CU8 SLP125=
SPECI CYAZ 172036Z 14010G16KT 10SM -SHRA SCT003 OVC014 10/10 A2990 RMK SF4CU4 SLP125=
SPECI CYAZ 172005Z 15012G20KT 10SM -SHRA OVC003 10/10 A2990 RMK SF8 CVCTV CLD EMBD SLP128=
METAR CYAZ 172000Z 15015G22KT 5SM BR OVC003 10/10 A2990 RMK SF8 VIS 2 SW-W SLP127=
SPECI CYAZ 171947Z 15014G20KT 2 1/2SM BR OVC003 10/10 A2990 RMK SF8 SLP128=
SPECI CYAZ 171936Z 16012G17KT 1/2SM -SHRA FG VV002 10/10 A2991 RMK FG8 CVCTV CLD EMBD SLP129=
SPECI CYAZ 171931Z 16012KT 3SM BR SCT001 OVC088 10/10 A2990 RMK SF4AC4 VIS LWR ALG SHR SLP128=
METAR CYAZ 171900Z 15009KT 15SM FEW005 BKN034 OVC100 12/10 A2990 RMK CF2CU4AC2 SLP126=

TAF AMD CYAZ 171950Z 1719/1801 16010KT P6SM -RA SCT004 OVC025 TEMPO
1719/1801 1SM -RA BR BKN004 OVC030
RMK NXT FCST WILL BE ISSUED AT 181445Z=
Your time UTC time
Weather data provided by Environment Canada and NAV CANADA